Airport ID:K63S
Update Time (UTC):09/08/2022 14:37
Wind Speed (Knots):0
Wind Direction (Magnetic):110
Temperature (°C):17
Dew Point (°C):7
Humidity (%):52
Altimeter (inHg):30.02
Density Altitude (Feet):
Visibility:10+
Clouds (Hundreds of feet):CLR
Present Weather:
METAR:METAR K63S 091435Z AUTO 00000KT 10SM CLR 17/07 A3002 RMK A01

The data displayed is for advisory purposes only and is not to be used for flight planning or operations.